Seattle, Washington
Traffic Map
Current Weather Conditions
Seattle, Washington
Overcast Light Rain
Overcast
57°
Feels Like: 57°
Wind Chill: 57° Ceiling: 6500
Heat Index: 57° Visibility: 10mi
Dew Point: 48° Wind: 3mph
Humidity: 72% Direction: 360° (N)
Pressure: 29.86in Gusts: 0mph
Raw Report DataKBFI 250253Z 36003KT 10SM -RA BKN065 OVC080 14/09 A2986 RMK AO2 RAB37 SLP110 P0000 60000 T01390089 56012
Traffic Incident Summary
Active as of:
Severity:
Category:
InformationThere was an issue retrieving the traffic information for this location. Please try a different location or try again shortly.
Advertisements
Track Severe Weather on mobile